createdAt,value
2018-04-10T00:00:00.549Z,60.30
2018-04-10T00:02:28.083Z,60.50
2018-04-10T00:04:56.406Z,60.90
2018-04-10T00:07:24.816Z,60.80
2018-04-10T00:09:52.464Z,61.10
2018-04-10T00:12:19.999Z,61.20
2018-04-10T00:14:47.553Z,61.30
2018-04-10T00:17:15.102Z,61.40
2018-04-10T00:19:42.636Z,61.50
2018-04-10T00:22:10.195Z,61.60
2018-04-10T00:24:37.728Z,62.30
2018-04-10T00:27:05.283Z,61.80
2018-04-10T00:29:32.807Z,62.00
2018-04-10T00:32:00.359Z,61.90
2018-04-10T00:34:28.648Z,62.00
2018-04-10T00:36:56.199Z,61.90
2018-04-10T00:39:23.732Z,62.00
2018-04-10T00:41:51.287Z,62.10
2018-04-10T00:44:18.816Z,62.20
2018-04-10T00:46:46.369Z,62.30
2018-04-10T00:49:13.912Z,62.50
2018-04-10T00:51:41.462Z,62.50
2018-04-10T00:54:08.987Z,62.70
2018-04-10T00:56:36.544Z,62.70
2018-04-10T00:59:04.068Z,62.90
2018-04-10T01:01:31.623Z,62.90
2018-04-10T01:03:59.139Z,63.00
2018-04-10T01:06:27.455Z,63.40
2018-04-10T01:08:54.979Z,63.20
2018-04-10T01:11:23.311Z,63.40
2018-04-10T01:13:50.831Z,63.20
2018-04-10T01:16:18.368Z,63.40
2018-04-10T01:18:45.924Z,63.30
2018-04-10T01:21:13.459Z,63.60
2018-04-10T01:23:41.016Z,63.50
2018-04-10T01:26:08.535Z,63.60
2018-04-10T01:28:36.099Z,63.50
2018-04-10T01:31:03.628Z,63.60
2018-04-10T01:33:31.185Z,63.70
2018-04-10T01:35:58.716Z,63.70
2018-04-10T01:38:26.271Z,63.90
2018-04-10T01:40:53.801Z,63.90
2018-04-10T01:43:21.358Z,64.00
2018-04-10T01:45:48.923Z,64.00
2018-04-10T01:48:16.446Z,64.00
2018-04-10T01:50:43.995Z,64.10
2018-04-10T01:53:12.289Z,64.20
2018-04-10T01:55:39.847Z,64.10
2018-04-10T01:58:07.374Z,64.40
2018-04-10T02:00:34.929Z,64.20
2018-04-10T02:03:02.447Z,64.10
2018-04-10T02:05:30.768Z,64.40
2018-04-10T02:07:58.291Z,64.20
2018-04-10T02:10:25.860Z,64.50
2018-04-10T02:12:53.384Z,64.70
2018-04-10T02:15:20.910Z,64.80
2018-04-10T02:17:48.463Z,64.90
2018-04-10T02:20:15.983Z,64.90
2018-04-10T02:22:44.299Z,65.10
2018-04-10T02:25:11.819Z,65.00
2018-04-10T02:27:40.139Z,65.20
2018-04-10T02:30:07.663Z,65.10
2018-04-10T02:32:36.007Z,65.10
2018-04-10T02:35:03.531Z,65.10
2018-04-10T02:37:31.084Z,65.20
2018-04-10T02:39:58.602Z,65.30
2018-04-10T02:42:26.160Z,65.50
2018-04-10T02:44:53.688Z,65.10
2018-04-10T02:47:21.240Z,65.50
2018-04-10T02:49:48.769Z,65.40
2018-04-10T02:52:16.319Z,65.30
2018-04-10T02:54:44.602Z,65.30
2018-04-10T02:57:12.915Z,65.30
2018-04-10T02:59:40.437Z,65.30
2018-04-10T03:02:08.751Z,65.40
2018-04-10T03:04:36.267Z,65.30
2018-04-10T03:07:04.583Z,65.50
2018-04-10T03:09:32.111Z,65.40
2018-04-10T03:12:00.440Z,65.60
2018-04-10T03:14:27.962Z,65.40
2018-04-10T03:16:55.479Z,65.60
2018-04-10T03:19:23.027Z,65.50
2018-04-10T03:21:50.551Z,65.60
2018-04-10T03:24:18.103Z,65.60
2018-04-10T03:26:45.629Z,65.70
2018-04-10T03:29:13.184Z,65.60
2018-04-10T03:31:40.711Z,65.80
2018-04-10T03:34:08.252Z,65.90
2018-04-10T03:36:35.766Z,65.90
2018-04-10T03:39:03.328Z,66.00
2018-04-10T03:41:30.855Z,66.20
2018-04-10T03:43:58.407Z,66.20
2018-04-10T03:46:25.928Z,66.30
2018-04-10T03:48:54.252Z,66.50
2018-04-10T03:51:21.771Z,66.40
2018-04-10T03:53:50.104Z,66.60
2018-04-10T03:56:17.630Z,66.50
2018-04-10T03:58:45.180Z,66.70
2018-04-10T04:01:12.703Z,66.90
2018-04-10T04:03:40.260Z,67.00
2018-04-10T04:06:07.795Z,67.00
2018-04-10T04:08:35.343Z,67.20
2018-04-10T04:11:02.868Z,67.20
2018-04-10T04:13:31.188Z,67.40
2018-04-10T04:15:58.711Z,67.40
2018-04-10T04:18:38.193Z,67.50
2018-04-10T04:21:17.447Z,67.60
2018-04-10T04:23:44.999Z,67.70
2018-04-10T04:26:12.524Z,67.80
2018-04-10T04:28:40.084Z,67.80
2018-04-10T04:31:07.611Z,67.90
2018-04-10T04:33:35.900Z,68.20
2018-04-10T04:36:04.219Z,68.20
2018-04-10T04:38:31.743Z,68.20
2018-04-10T04:40:59.300Z,68.40
2018-04-10T04:43:26.828Z,68.60
2018-04-10T04:45:54.385Z,68.50
2018-04-10T04:48:21.911Z,68.70
2018-04-10T04:50:49.472Z,68.80
2018-04-10T04:53:16.998Z,68.80
2018-04-10T04:55:45.324Z,68.80
2018-04-10T04:58:12.856Z,68.70
2018-04-10T05:00:40.448Z,68.80
2018-04-10T05:03:08.125Z,68.80
2018-04-10T05:05:35.738Z,68.70
2018-04-10T05:08:04.095Z,68.70
2018-04-10T05:10:32.436Z,69.00
2018-04-10T05:12:59.963Z,69.00
2018-04-10T05:15:27.541Z,69.10
2018-04-10T05:17:55.059Z,69.10
2018-04-10T05:20:23.375Z,69.00
2018-04-10T05:22:50.907Z,69.00
2018-04-10T05:25:18.499Z,68.90
2018-04-10T05:27:46.056Z,68.80
2018-04-10T05:30:13.579Z,68.70
2018-04-10T05:32:41.143Z,69.00
2018-04-10T05:35:08.673Z,69.00
2018-04-10T05:37:36.225Z,68.70
2018-04-10T05:40:03.751Z,68.80
2018-04-10T05:42:31.307Z,69.10
2018-04-10T05:44:58.842Z,69.10
2018-04-10T05:47:26.399Z,69.00
2018-04-10T05:49:54.700Z,69.10
2018-04-10T05:52:22.260Z,69.10
2018-04-10T05:54:49.792Z,69.00
2018-04-10T05:57:18.116Z,69.10
2018-04-10T05:59:45.645Z,69.00
2018-04-10T06:02:13.210Z,68.90
2018-04-10T06:04:40.740Z,68.60
2018-04-10T06:07:09.059Z,68.80
2018-04-10T06:09:36.584Z,68.70
2018-04-10T06:12:04.903Z,68.90
2018-04-10T06:14:32.431Z,68.80
2018-04-10T06:17:00.752Z,68.80
2018-04-10T06:19:28.282Z,68.70
2018-04-10T06:21:55.834Z,69.00
2018-04-10T06:24:23.360Z,69.70
2018-04-10T06:26:50.891Z,68.90
2018-04-10T06:29:18.445Z,68.90
2018-04-10T06:31:45.977Z,68.60
2018-04-10T06:34:13.531Z,68.40
2018-04-10T06:36:41.055Z,68.30
2018-04-10T06:39:08.611Z,68.20
2018-04-10T06:41:36.137Z,67.90
2018-04-10T06:44:03.691Z,67.60
2018-04-10T06:46:31.224Z,67.50
2018-04-10T06:48:59.556Z,66.80
2018-04-10T06:51:27.140Z,66.80
2018-04-10T06:53:54.700Z,66.60
2018-04-10T06:56:22.219Z,66.30
2018-04-10T06:58:49.777Z,66.00
2018-04-10T07:01:17.303Z,65.60
2018-04-10T07:03:44.860Z,65.50
2018-04-10T07:06:12.392Z,65.00
2018-04-10T07:08:39.947Z,64.40
2018-04-10T07:11:07.469Z,64.00
2018-04-10T07:13:35.027Z,64.20
2018-04-10T07:16:02.551Z,63.90
2018-04-10T07:18:30.108Z,63.50
2018-04-10T07:20:57.679Z,64.50
2018-04-10T07:23:25.231Z,63.40
2018-04-10T07:25:52.764Z,64.00
2018-04-10T07:28:20.327Z,63.30
2018-04-10T07:30:47.855Z,63.10
2018-04-10T07:33:15.379Z,63.00
2018-04-10T07:35:43.705Z,62.70
2018-04-10T07:38:11.248Z,62.60
2018-04-10T07:40:38.804Z,62.60
2018-04-10T07:43:06.327Z,62.40
2018-04-10T07:45:33.879Z,62.20
2018-04-10T07:48:01.400Z,62.10
2018-04-10T07:50:28.968Z,61.90
2018-04-10T07:52:56.502Z,61.90
2018-04-10T07:55:24.058Z,61.50
2018-04-10T07:57:51.583Z,61.50
2018-04-10T08:00:19.136Z,61.20
2018-04-10T08:02:46.664Z,61.10
2018-04-10T08:05:14.220Z,61.00
2018-04-10T08:07:41.756Z,60.90
2018-04-10T08:10:09.312Z,60.30
2018-04-10T08:12:36.843Z,60.50
2018-04-10T08:15:04.404Z,60.50
2018-04-10T08:17:31.928Z,60.40
2018-04-10T08:19:59.492Z,60.10
2018-04-10T08:22:27.022Z,60.20
2018-04-10T08:24:55.335Z,59.70
2018-04-10T08:27:23.623Z,59.80
2018-04-10T08:29:51.178Z,59.70
2018-04-10T08:32:18.708Z,59.50
2018-04-10T08:34:46.237Z,59.30
2018-04-10T08:37:13.834Z,59.00
2018-04-10T08:39:41.360Z,59.00
2018-04-10T08:42:09.680Z,58.50
2018-04-10T08:44:37.212Z,58.50
2018-04-10T08:47:04.773Z,58.50
2018-04-10T08:49:32.319Z,58.30
2018-04-10T08:51:59.883Z,57.90
2018-04-10T08:54:27.425Z,57.50
2018-04-10T08:56:54.988Z,57.50
2018-04-10T08:59:22.511Z,57.70
2018-04-10T09:01:50.080Z,58.10
2018-04-10T09:04:17.628Z,57.70
2018-04-10T09:06:45.184Z,57.00
2018-04-10T09:09:12.711Z,57.10
2018-04-10T09:11:40.269Z,56.90
2018-04-10T09:14:08.559Z,56.00
2018-04-10T09:16:36.114Z,55.90
2018-04-10T09:19:03.643Z,56.00
2018-04-10T09:21:31.187Z,55.90
2018-04-10T09:23:58.718Z,55.80
2018-04-10T09:26:27.116Z,55.60
2018-04-10T09:28:54.653Z,55.50
2018-04-10T09:31:22.210Z,55.60
2018-04-10T09:33:49.731Z,55.40
2018-04-10T09:36:17.296Z,55.30
2018-04-10T09:38:44.851Z,55.30
2018-04-10T09:41:12.375Z,55.20
2018-04-10T09:43:39.982Z,55.00
2018-04-10T09:46:07.466Z,54.80
2018-04-10T09:48:35.019Z,54.90
2018-04-10T09:51:03.340Z,54.20
2018-04-10T09:53:30.893Z,54.10
2018-04-10T09:55:58.428Z,54.20
2018-04-10T09:58:25.983Z,54.40
2018-04-10T10:00:54.280Z,53.20
2018-04-10T10:03:21.844Z,53.80
2018-04-10T10:05:49.367Z,52.70
2018-04-10T10:08:17.683Z,52.30
2018-04-10T10:10:45.213Z,52.30
2018-04-10T10:13:13.533Z,52.50
2018-04-10T10:15:41.060Z,52.50
2018-04-10T10:18:08.616Z,52.40
2018-04-10T10:20:36.140Z,52.90
2018-04-10T10:23:03.697Z,52.30
2018-04-10T10:25:31.216Z,51.20
2018-04-10T10:27:58.777Z,50.90
2018-04-10T10:30:26.301Z,51.10
2018-04-10T10:32:53.852Z,50.90
2018-04-10T10:35:21.381Z,50.80
2018-04-10T10:37:49.017Z,50.60
2018-04-10T10:40:16.545Z,50.30
2018-04-10T10:42:44.075Z,50.40
2018-04-10T10:45:11.636Z,49.50
2018-04-10T10:47:39.163Z,49.30
2018-04-10T10:50:06.720Z,49.10
2018-04-10T10:52:34.243Z,49.20
2018-04-10T10:55:02.576Z,49.00
2018-04-10T10:57:30.108Z,48.30
2018-04-10T10:59:57.668Z,48.20
2018-04-10T11:02:25.205Z,48.70
2018-04-10T11:04:53.571Z,47.30
2018-04-10T11:07:21.095Z,47.20
2018-04-10T11:09:48.648Z,47.10
2018-04-10T11:12:16.181Z,46.60
2018-04-10T11:14:43.752Z,46.70
2018-04-10T11:17:11.280Z,46.20
2018-04-10T11:19:39.606Z,46.20
2018-04-10T11:22:07.128Z,46.10
2018-04-10T11:24:35.484Z,45.50
2018-04-10T11:27:03.007Z,45.50
2018-04-10T11:29:30.573Z,45.50
2018-04-10T11:31:58.103Z,45.50
2018-04-10T11:34:25.642Z,45.30
2018-04-10T11:36:53.960Z,45.80
2018-04-10T11:39:21.496Z,45.10
2018-04-10T11:41:49.824Z,44.50
2018-04-10T11:44:17.357Z,44.40
2018-04-10T11:46:44.912Z,44.80
2018-04-10T11:49:12.437Z,44.30
2018-04-10T11:51:40.759Z,43.90
2018-04-10T11:54:08.284Z,43.80
2018-04-10T11:56:36.605Z,43.60
2018-04-10T11:59:04.140Z,43.60
2018-04-10T12:01:31.697Z,43.70
2018-04-10T12:03:59.232Z,43.20
2018-04-10T12:06:26.788Z,43.30
2018-04-10T12:08:54.317Z,42.90
2018-04-10T12:11:21.879Z,42.60
2018-04-10T12:13:49.409Z,42.50
2018-04-10T12:16:16.967Z,43.00
2018-04-10T12:18:44.504Z,42.20
2018-04-10T12:21:12.832Z,42.10
2018-04-10T12:23:40.368Z,42.00
2018-04-10T12:26:07.928Z,41.60
2018-04-10T12:28:35.492Z,41.40
2018-04-10T12:31:03.020Z,41.50
2018-04-10T12:33:31.335Z,41.30
2018-04-10T12:35:58.868Z,41.40
2018-04-10T12:38:27.191Z,41.40
2018-04-10T12:40:54.721Z,41.30
2018-04-10T12:43:22.292Z,41.50
2018-04-10T12:45:49.823Z,41.20
2018-04-10T12:48:18.143Z,40.70
2018-04-10T12:50:45.670Z,40.60
2018-04-10T12:53:13.227Z,40.30
2018-04-10T12:55:41.526Z,39.70
2018-04-10T12:58:09.074Z,39.70
2018-04-10T13:00:36.599Z,40.10
2018-04-10T13:03:04.155Z,39.50
2018-04-10T13:05:31.676Z,39.50
2018-04-10T13:07:59.236Z,39.50
2018-04-10T13:10:26.762Z,39.50
2018-04-10T13:12:55.080Z,39.10
2018-04-10T13:15:22.608Z,39.00
2018-04-10T13:17:50.168Z,38.80
2018-04-10T13:20:17.696Z,39.20
2018-04-10T13:22:45.456Z,38.80
2018-04-10T13:25:12.979Z,38.60
2018-04-10T13:27:40.535Z,38.20
2018-04-10T13:30:08.062Z,37.90
2018-04-10T13:32:36.383Z,38.00
2018-04-10T13:35:03.923Z,38.00
2018-04-10T13:37:31.460Z,37.90
2018-04-10T13:39:59.788Z,38.40
2018-04-10T13:42:27.425Z,38.40
2018-04-10T13:44:55.016Z,38.30
2018-04-10T13:47:22.540Z,38.20
2018-04-10T13:49:50.124Z,38.10
2018-04-10T13:52:17.656Z,37.40
2018-04-10T13:54:45.212Z,37.80
2018-04-10T13:57:12.744Z,37.10
2018-04-10T13:59:40.300Z,36.90
2018-04-10T14:02:07.821Z,37.50
2018-04-10T14:04:35.371Z,36.90
2018-04-10T14:07:02.899Z,36.90
2018-04-10T14:09:31.215Z,36.60
2018-04-10T14:11:58.739Z,36.60
2018-04-10T14:14:27.061Z,36.00
2018-04-10T14:16:54.592Z,36.00
2018-04-10T14:19:22.143Z,36.00
2018-04-10T14:21:49.674Z,35.80
2018-04-10T14:24:17.231Z,36.10
2018-04-10T14:26:44.752Z,35.80
2018-04-10T14:29:12.308Z,35.80
2018-04-10T14:31:39.828Z,35.90
2018-04-10T14:34:08.151Z,35.30
2018-04-10T14:36:35.672Z,35.20
2018-04-10T14:39:03.959Z,35.20
2018-04-10T14:41:31.515Z,35.20
2018-04-10T14:43:59.803Z,35.20
2018-04-10T14:46:27.354Z,35.20
2018-04-10T14:48:55.644Z,34.90
2018-04-10T14:51:23.198Z,34.90
2018-04-10T14:53:50.728Z,34.80
2018-04-10T14:56:18.292Z,34.80
2018-04-10T14:58:45.812Z,34.50
2018-04-10T15:01:13.364Z,34.50
2018-04-10T15:03:40.888Z,34.30
2018-04-10T15:06:09.208Z,33.90
2018-04-10T15:08:36.740Z,33.90
2018-04-10T15:11:04.305Z,33.80
2018-04-10T15:13:31.837Z,33.80
2018-04-10T15:16:00.156Z,33.80
2018-04-10T15:18:27.675Z,33.70
2018-04-10T15:20:55.991Z,33.70
2018-04-10T15:23:23.559Z,33.80
2018-04-10T15:25:51.086Z,33.50
2018-04-10T15:28:18.616Z,33.20
2018-04-10T15:30:46.172Z,33.20
2018-04-10T15:33:13.697Z,33.10
2018-04-10T15:35:41.256Z,32.90
2018-04-10T15:38:08.780Z,32.90
2018-04-10T15:40:37.112Z,32.50
2018-04-10T15:43:04.635Z,32.50
2018-04-10T15:45:32.164Z,32.20
2018-04-10T15:47:59.719Z,32.10
2018-04-10T15:50:27.251Z,32.60
2018-04-10T15:52:54.820Z,31.60
2018-04-10T15:55:22.363Z,31.80
2018-04-10T15:57:49.915Z,31.90
2018-04-10T16:00:17.435Z,31.60
2018-04-10T16:02:45.810Z,31.20
2018-04-10T16:05:14.099Z,31.00
2018-04-10T16:07:42.420Z,30.80
2018-04-10T16:10:09.954Z,30.80
2018-04-10T16:12:37.512Z,30.90
2018-04-10T16:15:05.043Z,30.90
2018-04-10T16:17:33.370Z,31.30
2018-04-10T16:20:00.895Z,31.20
2018-04-10T16:22:29.221Z,31.80
2018-04-10T16:24:56.752Z,32.50
2018-04-10T16:27:24.304Z,32.20
2018-04-10T16:29:51.827Z,32.70
2018-04-10T16:32:19.383Z,33.20
2018-04-10T16:34:46.903Z,33.70
2018-04-10T16:37:14.460Z,34.00
2018-04-10T16:39:41.984Z,34.40
2018-04-10T16:42:10.272Z,34.70
2018-04-10T16:44:38.596Z,34.80
2018-04-10T16:47:06.123Z,34.80
2018-04-10T16:49:33.680Z,35.00
2018-04-10T16:52:01.204Z,35.00
2018-04-10T16:54:28.755Z,35.30
2018-04-10T16:56:56.287Z,35.50
2018-04-10T16:59:23.836Z,35.50
2018-04-10T17:01:51.368Z,35.70
2018-04-10T17:04:19.692Z,36.00
2018-04-10T17:06:47.221Z,36.00
2018-04-10T17:09:14.784Z,36.30
2018-04-10T17:11:42.320Z,36.40
2018-04-10T17:14:10.639Z,36.80
2018-04-10T17:16:38.172Z,36.70
2018-04-10T17:19:06.498Z,37.20
2018-04-10T17:21:34.032Z,37.20
2018-04-10T17:24:01.580Z,37.50
2018-04-10T17:26:29.108Z,37.50
2018-04-10T17:28:56.659Z,37.90
2018-04-10T17:31:24.186Z,38.00
2018-04-10T17:33:51.735Z,38.20
2018-04-10T17:36:19.268Z,38.40
2018-04-10T17:38:46.939Z,38.40
2018-04-10T17:41:14.435Z,38.50
2018-04-10T17:43:41.991Z,38.70
2018-04-10T17:46:09.524Z,38.90
2018-04-10T17:48:37.047Z,39.00
2018-04-10T17:51:04.600Z,39.30
2018-04-10T17:53:32.123Z,39.50
2018-04-10T17:55:59.711Z,39.80
2018-04-10T17:58:27.222Z,40.10
2018-04-10T18:00:54.781Z,40.30
2018-04-10T18:03:22.348Z,40.60
2018-04-10T18:05:50.656Z,41.10
2018-04-10T18:08:18.182Z,41.10
2018-04-10T18:10:45.756Z,41.50
2018-04-10T18:13:13.308Z,41.80
2018-04-10T18:15:40.872Z,42.20
2018-04-10T18:18:08.408Z,42.80
2018-04-10T18:20:36.733Z,43.60
2018-04-10T18:23:04.256Z,43.60
2018-04-10T18:25:32.571Z,44.60
2018-04-10T18:28:00.100Z,44.50
2018-04-10T18:30:27.673Z,45.10
2018-04-10T18:32:55.208Z,45.70
2018-04-10T18:35:22.768Z,46.10
2018-04-10T18:37:51.055Z,46.90
2018-04-10T18:40:18.616Z,46.80
2018-04-10T18:42:46.704Z,47.10
2018-04-10T18:45:14.227Z,47.50
2018-04-10T18:47:42.545Z,48.20
2018-04-10T18:50:10.067Z,48.00
2018-04-10T18:52:38.395Z,48.50
2018-04-10T18:55:05.927Z,48.50
2018-04-10T18:57:33.475Z,48.60
2018-04-10T19:00:01.774Z,49.10
2018-04-10T19:02:29.328Z,49.10
2018-04-10T19:04:56.863Z,49.40
2018-04-10T19:07:25.208Z,49.80
2018-04-10T19:09:52.740Z,49.80
2018-04-10T19:12:20.298Z,50.10
2018-04-10T19:14:47.956Z,50.20
2018-04-10T19:17:15.502Z,50.40
2018-04-10T19:19:43.382Z,50.60
2018-04-10T19:22:11.788Z,50.80
2018-04-10T19:24:39.316Z,50.70
2018-04-10T19:27:06.873Z,50.70
2018-04-10T19:29:34.715Z,50.90
2018-04-10T19:32:03.039Z,51.10
2018-04-10T19:34:30.927Z,50.90
2018-04-10T19:36:58.479Z,51.20
2018-04-10T19:39:26.478Z,51.90
2018-04-10T19:41:53.995Z,51.40
2018-04-10T19:44:21.696Z,51.60
2018-04-10T19:46:49.220Z,51.80
2018-04-10T19:49:16.779Z,51.90
2018-04-10T19:51:44.320Z,51.80
2018-04-10T19:54:12.033Z,51.90
2018-04-10T19:56:39.571Z,52.00
2018-04-10T19:59:07.128Z,52.10
2018-04-10T20:01:34.776Z,52.30
2018-04-10T20:04:02.339Z,52.30
2018-04-10T20:06:30.016Z,52.60
2018-04-10T20:08:57.591Z,52.80
2018-04-10T20:11:26.103Z,53.20
2018-04-10T20:13:54.448Z,53.50
2018-04-10T20:16:22.147Z,53.40
2018-04-10T20:18:49.772Z,53.70
2018-04-10T20:21:17.422Z,53.70
2018-04-10T20:23:44.989Z,53.80
2018-04-10T20:26:12.651Z,53.90
2018-04-10T20:28:40.233Z,54.00
2018-04-10T20:31:07.853Z,54.10
2018-04-10T20:33:35.429Z,54.10
2018-04-10T20:36:03.133Z,54.90
2018-04-10T20:38:31.556Z,54.70
2018-04-10T20:40:59.090Z,54.60
2018-04-10T20:43:27.795Z,55.90
2018-04-10T20:45:56.375Z,55.80
2018-04-10T20:48:24.192Z,55.60
2018-04-10T20:50:51.835Z,56.00
2018-04-10T20:53:20.359Z,56.30
2018-04-10T20:55:48.697Z,56.60
2018-04-10T20:58:16.604Z,56.60
2018-04-10T21:00:44.158Z,56.80
2018-04-10T21:03:12.395Z,57.10
2018-04-10T21:05:39.951Z,57.30
2018-04-10T21:08:08.047Z,57.40
2018-04-10T21:10:35.702Z,57.60
2018-04-10T21:13:03.236Z,57.60
2018-04-10T21:15:30.796Z,57.50
2018-04-10T21:17:58.324Z,57.60
2018-04-10T21:20:25.899Z,58.00
2018-04-10T21:22:54.191Z,58.30
2018-04-10T21:25:22.514Z,58.50
2018-04-10T21:27:50.032Z,58.50
2018-04-10T21:30:17.595Z,58.60
2018-04-10T21:32:45.123Z,58.80
2018-04-10T21:35:13.460Z,58.90
2018-04-10T21:37:40.989Z,58.90
2018-04-10T21:40:08.546Z,59.00
2018-04-10T21:42:42.409Z,59.10
2018-04-10T21:45:10.005Z,59.10
2018-04-10T21:47:38.296Z,59.60
2018-04-10T21:50:06.627Z,59.80
2018-04-10T21:52:34.174Z,59.70
2018-04-10T21:55:01.700Z,60.00
2018-04-10T21:57:29.252Z,60.00
2018-04-10T21:59:57.535Z,60.30
2018-04-10T22:02:25.087Z,60.30
2018-04-10T22:04:53.376Z,60.70
2018-04-10T22:07:20.928Z,60.70
2018-04-10T22:09:49.230Z,61.20
2018-04-10T22:12:16.775Z,61.10
2018-04-10T22:14:44.303Z,61.30
2018-04-10T22:17:11.859Z,61.30
2018-04-10T22:19:39.390Z,61.60
2018-04-10T22:22:06.938Z,61.70
2018-04-10T22:24:34.457Z,61.70
2018-04-10T22:27:02.775Z,62.20
2018-04-10T22:29:30.303Z,62.10
2018-04-10T22:31:58.627Z,62.40
2018-04-10T22:34:26.113Z,62.30
2018-04-10T22:36:53.667Z,62.50
2018-04-10T22:39:21.957Z,62.70
2018-04-10T22:41:49.512Z,62.70
2018-04-10T22:44:17.045Z,62.90
2018-04-10T22:46:44.601Z,63.10
2018-04-10T22:49:12.129Z,63.30
2018-04-10T22:51:39.689Z,63.40
2018-04-10T22:54:07.225Z,63.60
2018-04-10T22:56:34.785Z,63.50
2018-04-10T22:59:02.313Z,63.60
2018-04-10T23:01:30.609Z,63.90
2018-04-10T23:03:58.172Z,63.90
2018-04-10T23:06:25.702Z,63.80
2018-04-10T23:08:53.260Z,64.10
2018-04-10T23:11:20.800Z,64.10
2018-04-10T23:13:48.358Z,64.30
2018-04-10T23:16:15.888Z,64.40
2018-04-10T23:18:44.204Z,64.70
2018-04-10T23:21:11.728Z,64.60
2018-04-10T23:23:40.048Z,64.90
2018-04-10T23:26:07.577Z,64.90
2018-04-10T23:28:35.135Z,64.80
2018-04-10T23:31:03.428Z,64.70
2018-04-10T23:33:30.979Z,64.60
2018-04-10T23:35:59.278Z,64.70
2018-04-10T23:38:26.836Z,64.70
2018-04-10T23:40:54.368Z,65.60
2018-04-10T23:43:22.684Z,65.10
2018-04-10T23:45:50.208Z,65.00
2018-04-10T23:48:18.529Z,65.20
2018-04-10T23:50:46.061Z,65.20
2018-04-10T23:53:13.620Z,65.40
2018-04-10T23:55:41.899Z,65.90
2018-04-10T23:58:09.455Z,65.80
